Latest Coastal Weather Observations for Legendre Island

IDW60701

Issued at 4:35 pm WST Sunday 26 October 2014 (issued every 10 minutes, with the page automatically refreshed every 10 minutes)

About coastal observations | Map of coastal stations | Coastal observations for WA | Marine services | Other Formats
Station Details ID: 004095 Name: LEGENDRE ISLAND Lat: -20.36 Lon: 116.84 Height: 29.0 m
Data from the previous 72 hours. | See also: Recent months for locations in Western Australia
Date/Time
WST
Temp

°C
Wind Pressure Rain
since 9am
mm
Weather Cloud Vis
km
Sea
Height
m
Swell
Dir
 
Speed
knots
Gust
knots
hPa Trend Height
m
Period
s
Dir
26/04:30pm 28.7 WSW 12 16 1010.3 - - - - - - - - -
26/04:00pm 29.3 W 12 15 1010.3 - - - - - - - - -
26/03:30pm 28.6 W 13 15 1010.4 - - - - - - - - -
26/03:00pm 29.3 W 13 16 1010.9 - - - - - - - - -
26/02:30pm 29.8 W 14 17 1011.1 - - - - - - - - -
26/02:00pm 29.6 W 15 18 1011.5 - - - - - - - - -
26/01:30pm 30.3 WSW 15 18 1011.8 - - - - - - - - -
26/01:00pm 30.2 WSW 16 19 1012.1 - - - - - - - - -
26/12:30pm 30.1 WSW 14 17 1012.3 - - - - - - - - -
26/12:00pm 29.9 WSW 14 17 1012.8 - - - - - - - - -
26/11:30am 30.0 WSW 13 15 1013.0 - - - - - - - - -
26/11:00am 29.5 WSW 13 16 1013.4 - - - - - - - - -
26/10:30am 29.6 WSW 13 15 1013.7 - - - - - - - - -
26/10:00am 29.1 WSW 11 14 1013.9 - - - - - - - - -
26/09:30am 29.2 WSW 11 13 1013.9 - - - - - - - - -
26/09:00am 28.6 SW 11 12 1013.9 - - - - - - - - -
26/08:30am 28.6 SW 10 12 1013.6 - - - - - - - - -
26/08:00am 27.4 SW 11 13 1013.4 - - - - - - - - -
26/07:30am 26.7 SSW 11 13 1013.3 - - - - - - - - -
26/07:00am 26.0 SSW 10 12 1013.2 - - - - - - - - -
26/06:30am 24.9 SW 10 12 1012.9 - - - - - - - - -
26/06:00am 23.9 SW 10 11 1012.4 - - - - - - - - -
26/05:30am 23.8 SSW 11 12 1012.2 - - - - - - - - -
26/05:00am 24.1 SSW 10 11 1012.0 - - - - - - - - -
26/04:30am 24.3 SW 10 11 1011.8 - - - - - - - - -
26/04:00am 24.5 SW 12 14 1011.5 - - - - - - - - -
26/03:30am 24.5 SW 10 11 1011.5 - - - - - - - - -
26/03:00am 24.6 SW 10 12 1011.6 - - - - - - - - -
26/02:30am 24.6 SW 11 13 1011.6 - - - - - - - - -
26/02:00am 24.7 SW 11 13 1011.5 - - - - - - - - -
26/01:30am 24.9 SW 12 14 1011.7 - - - - - - - - -
26/01:00am 24.9 SW 13 15 1011.8 - - - - - - - - -
26/12:30am 25.1 SW 13 15 1012.1 - - - - - - - - -
26/12:00am 25.2 SW 13 16 1012.3 - - - - - - - - -
 
Date/Time
WST
Temp

°C
Wind Pressure Rain
since 9am
mm
Weather Cloud Vis
km
Sea
Height
m
Swell
Dir
 
Speed
knots
Gust
knots
hPa Trend Height
m
Period
s
Dir
25/11:30pm 25.3 SW 14 18 1012.4 - - - - - - - - -
25/11:00pm 25.5 SW 16 19 1012.6 - - - - - - - - -
25/10:30pm 25.6 SW 16 19 1012.8 - - - - - - - - -
25/10:00pm 25.8 SW 18 22 1012.7 - - - - - - - - -
25/09:30pm 25.7 SW 16 20 1012.8 - - - - - - - - -
25/09:00pm 25.9 SW 18 22 1012.6 - - - - - - - - -
25/08:30pm 26.1 SW 19 24 1012.4 - - - - - - - - -
25/08:00pm 26.2 SW 20 26 1012.2 - - - - - - - - -
25/07:30pm 26.5 WSW 21 26 1011.9 - - - - - - - - -
25/07:00pm 26.5 WSW 21 27 1011.7 - - - - - - - - -
25/06:30pm 26.8 WSW 23 28 1011.5 - - - - - - - - -
25/06:00pm 26.9 WSW 23 28 1011.3 - - - - - - - - -
25/05:30pm 27.4 WSW 23 28 1011.2 - - - - - - - - -
25/05:00pm 27.7 WSW 22 28 1011.1 - - - - - - - - -
25/04:30pm 28.2 WSW 23 27 1011.0 - - - - - - - - -
25/04:00pm 28.2 WSW 22 27 1011.0 - - - - - - - - -
25/03:30pm 28.8 WSW 21 26 1011.2 - - - - - - - - -
25/03:00pm 29.1 W 20 25 1011.5 - - - - - - - - -
25/02:30pm 29.5 W 18 23 1011.8 - - - - - - - - -
25/02:00pm 29.3 W 17 22 1012.3 - - - - - - - - -
25/01:30pm 29.1 W 17 21 1012.6 - - - - - - - - -
25/01:00pm 29.7 WSW 17 20 1013.0 - - - - - - - - -
25/12:30pm 29.0 W 16 19 1013.4 - - - - - - - - -
25/12:00pm 29.3 W 16 21 1013.7 - - - - - - - - -
25/11:30am 30.0 WSW 14 17 1013.9 - - - - - - - - -
25/11:00am 29.6 WSW 13 16 1014.0 - - - - - - - - -
25/10:30am 29.9 WSW 14 17 1014.2 - - - - - - - - -
25/10:00am 30.7 SW 15 18 1014.3 - - - - - - - - -
25/09:30am 29.1 SW 13 15 1014.4 - - - - - - - - -
25/09:00am 28.5 SW 14 16 1014.3 - - - - - - - - -
25/08:30am 28.1 SW 13 16 1014.4 - - - - - - - - -
25/08:00am 27.5 SW 12 14 1014.0 - - - - - - - - -
25/07:30am 27.0 SW 13 16 1013.9 - - - - - - - - -
25/07:00am 26.2 SW 11 15 1013.7 - - - - - - - - -
25/06:30am 25.3 SW 11 13 1013.2 - - - - - - - - -
25/06:00am 24.6 SW 14 16 1012.9 - - - - - - - - -
25/05:30am 24.5 SW 14 16 1012.5 - - - - - - - - -
25/05:00am 24.8 SW 13 15 1012.4 - - - - - - - - -
25/04:30am 25.0 SW 14 16 1012.2 - - - - - - - - -
25/04:00am 25.0 SW 14 17 1011.8 - - - - - - - - -
25/03:30am 25.1 SW 14 18 1011.7 - - - - - - - - -
25/03:00am 25.2 SW 13 15 1011.4 - - - - - - - - -
25/02:30am 25.3 SW 14 17 1011.3 - - - - - - - - -
25/02:00am 25.3 SW 15 19 1011.2 - - - - - - - - -
25/01:30am 25.1 SW 14 17 1011.3 - - - - - - - - -
25/01:00am 25.0 SW 14 17 1011.6 - - - - - - - - -
25/12:30am 25.2 WSW 16 19 1011.8 - - - - - - - - -
25/12:00am 25.1 WSW 15 18 1012.1 - - - - - - - - -
 
Date/Time
WST
Temp

°C
Wind Pressure Rain
since 9am
mm
Weather Cloud Vis
km
Sea
Height
m
Swell
Dir
 
Speed
knots
Gust
knots
hPa Trend Height
m
Period
s
Dir
24/11:30pm 25.2 WSW 15 18 1012.3 - - - - - - - - -
24/11:00pm 25.3 SW 15 18 1012.5 - - - - - - - - -
24/10:30pm 25.4 WSW 17 21 1012.4 - - - - - - - - -
24/10:00pm 25.5 WSW 18 22 1012.2 - - - - - - - - -
24/09:30pm 25.6 WSW 17 22 1012.0 - - - - - - - - -
24/09:00pm 25.6 SW 15 18 1011.7 - - - - - - - - -
24/08:30pm 25.5 SW 14 17 1011.3 - - - - - - - - -
24/08:00pm 25.6 WSW 16 20 1011.0 - - - - - - - - -
24/07:30pm 26.0 WSW 19 23 1010.6 - - - - - - - - -
24/07:00pm 26.4 WSW 18 23 1010.2 - - - - - - - - -
24/06:30pm 26.9 WSW 18 23 1009.7 - - - - - - - - -
24/06:00pm 27.3 WSW 16 19 1009.5 - - - - - - - - -
24/05:30pm 27.7 WSW 14 18 1009.2 - - - - - - - - -
24/05:00pm 28.2 WSW 17 20 1008.8 - - - - - - - - -
24/04:30pm 28.5 WSW 18 21 1008.6 - - - - - - - - -
24/04:00pm 29.0 WSW 17 22 1008.7 - - - - - - - - -
24/03:30pm 29.7 WSW 17 21 1009.0 - - - - - - - - -
24/03:00pm 29.6 WSW 15 20 1009.3 - - - - - - - - -
24/02:30pm 29.8 WSW 15 19 1009.6 - - - - - - - - -
24/02:00pm 29.3 WSW 16 19 1009.8 - - - - - - - - -
24/01:30pm 29.3 WSW 15 18 1010.2 - - - - - - - - -
24/01:00pm 30.4 WSW 14 17 1010.6 - - - - - - - - -
24/12:30pm 28.7 WSW 14 17 1011.0 - - - - - - - - -
24/12:00pm 29.8 W 11 15 1011.3 - - - - - - - - -
24/11:30am 29.5 WSW 10 12 1011.4 - - - - - - - - -
24/11:00am 29.9 WSW 11 14 1011.6 - - - - - - - - -
24/10:30am 29.5 WSW 13 15 1011.7 - - - - - - - - -
24/10:00am 29.2 SW 14 17 1011.7 - - - - - - - - -
24/09:30am 28.6 SW 16 18 1011.8 - - - - - - - - -
24/09:00am 27.8 WSW 16 18 1011.8 - - - - - - - - -
24/08:30am 27.6 SW 14 17 1011.8 - - - - - - - - -
24/08:00am 26.8 SW 16 18 1011.5 - - - - - - - - -
24/07:30am 26.4 SW 14 16 1011.3 - - - - - - - - -
24/07:00am 25.6 SW 13 15 1011.3 - - - - - - - - -
24/06:30am 24.7 SW 12 15 1011.2 - - - - - - - - -
24/06:00am 24.0 SW 12 14 1011.0 - - - - - - - - -
24/05:30am 23.9 SW 12 15 1010.9 - - - - - - - - -
24/05:00am 23.9 SW 12 14 1010.7 - - - - - - - - -
24/04:30am 24.1 SW 14 17 1010.5 - - - - - - - - -
24/04:00am 24.2 SW 16 18 1010.3 - - - - - - - - -
24/03:30am 24.4 SW 15 18 1010.2 - - - - - - - - -
24/03:00am 24.4 SW 15 17 1010.3 - - - - - - - - -
24/02:30am 24.6 SW 15 18 1010.5 - - - - - - - - -
24/02:00am 24.7 SW 15 19 1010.3 - - - - - - - - -
24/01:30am 24.8 SSW 15 19 1010.4 - - - - - - - - -
24/01:00am 24.9 SSW 14 18 1010.8 - - - - - - - - -
24/12:30am 24.9 SW 19 24 1010.7 - - - - - - - - -
24/12:00am 25.0 SW 20 25 1010.7 - - - - - - - - -
 
Date/Time
WST
Temp

°C
Wind Pressure Rain
since 9am
mm
Weather Cloud Vis
km
Sea
Height
m
Swell
Dir
 
Speed
knots
Gust
knots
hPa Trend Height
m
Period
s
Dir
23/11:30pm 25.0 SW 19 24 1011.1 - - - - - - - - -
23/11:00pm 25.1 SW 21 26 1011.3 - - - - - - - - -
23/10:30pm 25.1 SW 19 25 1011.7 - - - - - - - - -
23/10:00pm 25.2 SW 21 25 1011.7 - - - - - - - - -
23/09:30pm 25.3 SW 20 25 1011.8 - - - - - - - - -
23/09:00pm 25.2 SW 18 21 1011.8 - - - - - - - - -
23/08:30pm 25.3 WSW 19 22 1011.5 - - - - - - - - -
23/08:00pm 25.4 WSW 19 23 1011.4 - - - - - - - - -
23/07:30pm 25.3 WSW 19 22 1011.1 - - - - - - - - -
23/07:00pm 25.4 WSW 18 22 1010.9 - - - - - - - - -
23/06:30pm 25.5 WSW 20 24 1010.5 - - - - - - - - -
23/06:00pm 26.0 WSW 16 20 1010.4 - - - - - - - - -
23/05:30pm 26.6 WSW 15 18 1010.3 - - - - - - - - -
23/05:00pm 27.0 WSW 16 19 1010.0 - - - - - - - - -

Other Formats:

Comma delimited format used in spreadsheet applications
http://www.bom.gov.au/fwo/IDW60701/IDW60701.94307.axf

JavaScript Object Notation format (JSON) in row-major order
http://www.bom.gov.au/fwo/IDW60701/IDW60701.94307.json